Time;durP1;ratioP1;P1;durP2;ratioP2;P2;SDS_P1;SDS_P2;PMS_P1;PMS_P2;Temp;Humidity;BMP_temperature;BMP_pressure;BME280_temperature;BME280_humidity;BME280_pressure;Samples;Min_cycle;Max_cycle;Signal;HPM_P1;HPM_P2
2024/03/11 00:01:49;;;;;;;1.33;0.90;;;7.80;87.80;;;;;;5057134;28;20395;-61
2024/03/11 00:04:15;;;;;;;1.80;0.90;;;7.80;87.80;;;;;;5061889;28;20377;-59
2024/03/11 00:06:44;;;;;;;1.25;0.90;;;7.80;87.90;;;;;;5056202;28;20052;-60
2024/03/11 00:09:19;;;;;;;0.93;0.88;;;7.80;88.00;;;;;;5057805;28;20396;-60
2024/03/11 00:11:55;;;;;;;0.80;0.80;;;7.80;88.00;;;;;;5062996;28;20037;-59
2024/03/11 00:14:25;;;;;;;0.90;0.90;;;7.80;88.00;;;;;;5062921;28;20066;-58
2024/03/11 00:16:58;;;;;;;0.90;0.88;;;7.80;88.00;;;;;;5057355;28;20520;-60
2024/03/11 00:19:25;;;;;;;1.05;0.90;;;7.80;87.80;;;;;;5055739;28;20047;-59
2024/03/11 00:21:59;;;;;;;1.98;0.90;;;7.90;87.70;;;;;;5064300;28;20059;-60
2024/03/11 00:24:25;;;;;;;1.08;0.85;;;7.90;87.90;;;;;;5055210;28;20120;-59
2024/03/11 00:26:52;;;;;;;0.70;0.70;;;7.80;87.60;;;;;;5053328;28;20083;-61
2024/03/11 00:29:19;;;;;;;0.90;0.90;;;7.80;87.50;;;;;;5057592;28;20065;-61
2024/03/11 00:31:45;;;;;;;0.70;0.70;;;7.80;87.40;;;;;;5061764;28;20060;-60
2024/03/11 00:34:14;;;;;;;0.90;0.73;;;7.80;87.30;;;;;;5057725;28;20563;-61
2024/03/11 00:36:39;;;;;;;0.57;0.57;;;7.80;87.30;;;;;;5053812;28;20055;-58
2024/03/11 00:39:05;;;;;;;1.85;0.80;;;7.80;87.30;;;;;;5060376;28;20209;-59
2024/03/11 00:41:33;;;;;;;0.82;0.82;;;7.80;87.20;;;;;;5057511;28;20147;-61
2024/03/11 00:43:59;;;;;;;0.82;0.82;;;7.70;87.10;;;;;;5062643;28;20029;-61
2024/03/11 00:46:25;;;;;;;1.38;0.70;;;7.70;87.00;;;;;;5055009;28;20570;-60
2024/03/11 00:48:50;;;;;;;0.98;0.70;;;7.70;87.10;;;;;;5057598;28;20075;-60
2024/03/11 00:51:16;;;;;;;0.82;0.80;;;7.70;87.10;;;;;;5056105;28;20041;-60
2024/03/11 00:53:42;;;;;;;0.75;0.70;;;7.70;87.00;;;;;;5054187;28;20567;-60
2024/03/11 00:56:08;;;;;;;0.68;0.68;;;7.60;86.80;;;;;;5065626;28;20037;-61
2024/03/11 00:58:35;;;;;;;0.60;0.60;;;7.60;86.70;;;;;;5057934;28;20045;-61
2024/03/11 01:01:07;;;;;;;0.52;0.52;;;7.60;86.70;;;;;;5059554;28;20093;-60
2024/03/11 01:03:33;;;;;;;1.15;0.63;;;7.60;86.70;;;;;;5061153;28;20033;-60
2024/03/11 01:05:59;;;;;;;0.60;0.60;;;7.60;86.70;;;;;;5066169;28;20094;-59
2024/03/11 01:08:26;;;;;;;2.40;0.50;;;7.50;86.70;;;;;;5059454;28;20036;-60
2024/03/11 01:10:52;;;;;;;0.70;0.70;;;7.50;86.80;;;;;;5066586;28;20403;-61
2024/03/11 01:13:18;;;;;;;0.60;0.60;;;7.50;86.80;;;;;;5064294;28;20048;-61
2024/03/11 01:15:44;;;;;;;0.93;0.70;;;7.40;86.80;;;;;;5066403;28;20079;-59
2024/03/11 01:18:10;;;;;;;0.90;0.80;;;7.40;86.90;;;;;;5062450;28;20347;-61
2024/03/11 01:20:36;;;;;;;0.75;0.68;;;7.40;87.00;;;;;;5062635;28;20458;-61
2024/03/11 01:23:01;;;;;;;0.70;0.70;;;7.30;87.10;;;;;;5062535;28;21390;-60
2024/03/11 01:25:27;;;;;;;1.10;0.90;;;7.30;87.30;;;;;;5059920;28;20036;-60
2024/03/11 01:27:55;;;;;;;1.00;1.00;;;7.30;87.30;;;;;;5063117;28;20044;-60
2024/03/11 01:30:21;;;;;;;0.90;0.80;;;7.20;87.40;;;;;;5063485;28;20755;-61
2024/03/11 01:32:46;;;;;;;1.70;1.00;;;7.20;87.50;;;;;;5060135;28;20067;-60
2024/03/11 01:35:13;;;;;;;1.10;1.00;;;7.20;87.50;;;;;;5062071;28;20507;-60
2024/03/11 01:37:41;;;;;;;1.08;1.00;;;7.20;87.60;;;;;;5056862;28;20033;-61
2024/03/11 01:40:10;;;;;;;1.05;1.00;;;7.20;87.60;;;;;;5066603;28;20048;-61
2024/03/11 01:42:42;;;;;;;0.85;0.80;;;7.20;87.70;;;;;;5062262;28;20048;-61
2024/03/11 01:45:08;;;;;;;1.05;0.93;;;7.20;87.60;;;;;;5056953;28;20451;-60
2024/03/11 01:47:39;;;;;;;1.27;0.80;;;7.20;87.60;;;;;;5055966;28;20420;-60
2024/03/11 01:50:07;;;;;;;1.17;1.00;;;7.20;87.60;;;;;;5061410;28;20086;-60
2024/03/11 01:52:35;;;;;;;1.70;0.90;;;7.10;87.50;;;;;;5060022;28;20039;-59
2024/03/11 01:55:03;;;;;;;0.95;0.95;;;7.10;88.30;;;;;;5065963;28;20054;-61
2024/03/11 01:57:33;;;;;;;0.93;0.90;;;7.10;87.50;;;;;;5063613;28;20061;-60
2024/03/11 01:59:58;;;;;;;0.95;0.90;;;7.10;87.50;;;;;;5065317;28;20033;-61
2024/03/11 02:02:24;;;;;;;2.40;1.30;;;7.10;87.60;;;;;;5060291;28;20040;-61
2024/03/11 02:04:50;;;;;;;1.60;1.17;;;7.10;87.50;;;;;;5054323;28;20051;-58
2024/03/11 02:07:17;;;;;;;1.23;1.13;;;7.00;87.40;;;;;;5059926;28;20566;-61
2024/03/11 02:09:43;;;;;;;1.35;1.25;;;7.00;87.40;;;;;;5062825;28;20036;-61
2024/03/11 02:12:10;;;;;;;1.50;1.40;;;7.00;87.60;;;;;;5061705;28;20439;-60
2024/03/11 02:14:36;;;;;;;1.60;1.50;;;7.00;87.60;;;;;;5066269;28;20029;-61
2024/03/11 02:17:06;;;;;;;1.58;1.48;;;7.00;87.60;;;;;;5057583;28;20044;-60
2024/03/11 02:19:33;;;;;;;1.42;1.33;;;7.00;87.80;;;;;;5061161;28;20460;-61
2024/03/11 02:22:03;;;;;;;1.40;1.30;;;7.00;87.60;;;;;;5063107;28;20386;-61
2024/03/11 02:24:29;;;;;;;1.80;1.60;;;7.00;87.60;;;;;;5065749;28;20037;-60
2024/03/11 02:26:54;;;;;;;1.70;1.60;;;7.00;87.60;;;;;;5064054;28;20420;-61
2024/03/11 02:29:20;;;;;;;1.42;1.30;;;6.90;87.60;;;;;;5069295;28;20123;-59
2024/03/11 02:31:47;;;;;;;1.42;1.33;;;6.90;87.60;;;;;;5056497;28;20531;-61
2024/03/11 02:34:14;;;;;;;1.80;1.52;;;7.00;87.60;;;;;;5057434;28;20037;-61
2024/03/11 02:36:46;;;;;;;1.55;1.45;;;6.90;87.50;;;;;;5063200;28;20029;-60
2024/03/11 02:39:12;;;;;;;2.20;1.50;;;6.90;87.60;;;;;;5057552;28;20444;-59
2024/03/11 02:41:37;;;;;;;1.98;1.67;;;6.90;87.60;;;;;;5055654;28;20029;-60
2024/03/11 02:44:04;;;;;;;1.65;1.55;;;6.90;87.60;;;;;;5058786;28;20039;-60
2024/03/11 02:46:32;;;;;;;1.50;1.40;;;6.90;87.70;;;;;;5055197;28;20136;-61
2024/03/11 02:48:57;;;;;;;1.63;1.50;;;6.90;87.70;;;;;;5060371;28;20038;-61
2024/03/11 02:51:23;;;;;;;4.32;1.90;;;6.90;87.60;;;;;;5067297;28;20123;-61
2024/03/11 02:53:50;;;;;;;2.58;1.80;;;6.90;87.60;;;;;;5060845;28;20505;-59
2024/03/11 02:56:16;;;;;;;1.90;1.80;;;6.80;87.60;;;;;;5065260;28;20039;-60
2024/03/11 02:58:43;;;;;;;2.08;1.90;;;6.80;87.40;;;;;;5062829;28;20111;-61
2024/03/11 03:01:09;;;;;;;1.65;1.50;;;6.80;87.40;;;;;;5064002;28;20036;-58
2024/03/11 03:03:35;;;;;;;1.65;1.55;;;6.80;87.40;;;;;;5058939;28;20106;-59
2024/03/11 03:06:01;;;;;;;2.00;1.50;;;6.80;87.40;;;;;;5061648;28;20037;-61
2024/03/11 03:08:27;;;;;;;1.92;1.70;;;6.80;87.40;;;;;;5065511;28;20032;-61
2024/03/11 03:10:53;;;;;;;1.65;1.55;;;6.80;87.40;;;;;;5058075;28;20029;-61
2024/03/11 03:13:19;;;;;;;2.97;1.27;;;6.80;87.40;;;;;;5059994;28;20396;-61
2024/03/11 03:15:46;;;;;;;1.50;1.40;;;6.70;87.40;;;;;;5060623;28;20488;-61
2024/03/11 03:18:11;;;;;;;1.75;1.25;;;6.70;87.40;;;;;;5059044;28;20123;-59
2024/03/11 03:20:38;;;;;;;1.50;1.40;;;6.70;87.40;;;;;;5064597;28;20116;-60
2024/03/11 03:23:04;;;;;;;1.27;1.17;;;6.70;87.40;;;;;;5055580;28;20124;-58
2024/03/11 03:25:33;;;;;;;1.63;1.30;;;6.70;87.50;;;;;;5057174;28;20037;-61
2024/03/11 03:28:02;;;;;;;1.30;1.20;;;6.60;87.50;;;;;;5060782;28;20045;-59
2024/03/11 03:30:29;;;;;;;1.50;1.30;;;6.60;87.60;;;;;;5051543;28;20079;-58
2024/03/11 03:32:55;;;;;;;1.00;1.00;;;6.60;87.70;;;;;;5060007;28;20048;-61
2024/03/11 03:35:21;;;;;;;1.20;1.10;;;6.60;87.80;;;;;;5059909;28;20041;-61
2024/03/11 03:37:46;;;;;;;1.52;1.42;;;6.60;87.70;;;;;;5062972;28;20595;-59
2024/03/11 03:40:18;;;;;;;1.63;1.52;;;6.60;87.50;;;;;;5061256;28;20016;-60
2024/03/11 03:42:46;;;;;;;1.60;1.50;;;6.50;87.30;;;;;;5053332;28;20127;-61
2024/03/11 03:45:12;;;;;;;1.58;1.48;;;6.50;87.30;;;;;;5062836;28;20527;-61
2024/03/11 03:47:37;;;;;;;1.80;1.70;;;6.40;87.10;;;;;;5060371;28;20036;-61
2024/03/11 03:50:04;;;;;;;1.70;1.60;;;6.40;86.80;;;;;;5061819;28;20044;-61
2024/03/11 03:52:30;;;;;;;1.90;1.70;;;6.30;86.60;;;;;;5059725;28;20058;-59
2024/03/11 03:54:55;;;;;;;2.95;2.20;;;6.30;86.60;;;;;;5059028;28;20396;-60
2024/03/11 03:57:21;;;;;;;2.00;1.90;;;6.20;86.50;;;;;;5056724;28;20066;-60
2024/03/11 03:59:48;;;;;;;2.45;2.25;;;6.10;86.60;;;;;;5058743;28;20048;-60
2024/03/11 04:02:14;;;;;;;2.00;1.90;;;6.10;86.80;;;;;;5058243;28;20405;-61
2024/03/11 04:04:41;;;;;;;2.75;2.03;;;6.00;86.90;;;;;;5062411;28;20056;-60
2024/03/11 04:07:07;;;;;;;2.13;1.92;;;6.00;87.10;;;;;;5056463;28;20043;-61
2024/03/11 04:09:32;;;;;;;2.20;2.00;;;6.00;87.20;;;;;;5062664;28;20028;-61
2024/03/11 04:11:58;;;;;;;2.15;1.98;;;5.90;86.80;;;;;;5059670;28;20064;-60
2024/03/11 04:14:23;;;;;;;1.80;1.70;;;5.90;86.50;;;;;;5062158;28;20049;-59
2024/03/11 04:16:49;;;;;;;1.90;1.80;;;5.80;86.30;;;;;;5059688;28;20405;-61
2024/03/11 04:19:15;;;;;;;2.08;1.52;;;5.80;86.30;;;;;;5063248;28;20039;-61
2024/03/11 04:21:41;;;;;;;2.35;2.00;;;5.70;86.50;;;;;;5064134;28;20025;-60
2024/03/11 04:24:06;;;;;;;2.08;1.73;;;5.70;86.50;;;;;;5061932;28;20043;-61
2024/03/11 04:26:33;;;;;;;1.95;1.55;;;5.60;86.60;;;;;;5060038;28;20087;-61
2024/03/11 04:28:59;;;;;;;1.70;1.60;;;5.60;87.00;;;;;;5061219;28;21166;-60
2024/03/11 04:31:25;;;;;;;1.50;1.40;;;5.60;87.20;;;;;;5062446;28;20164;-61
2024/03/11 04:33:51;;;;;;;1.50;1.40;;;5.60;87.20;;;;;;5066066;28;20545;-61
2024/03/11 04:36:17;;;;;;;1.67;1.52;;;5.50;87.70;;;;;;5063001;28;20033;-60
2024/03/11 04:38:42;;;;;;;1.70;1.60;;;5.50;86.80;;;;;;5057180;28;20067;-59
2024/03/11 04:41:08;;;;;;;2.58;1.50;;;5.50;86.80;;;;;;5058666;28;20296;-60
2024/03/11 04:43:36;;;;;;;2.10;1.90;;;5.40;87.00;;;;;;5059268;28;20037;-59
2024/03/11 04:46:02;;;;;;;1.98;1.88;;;5.40;87.20;;;;;;5054951;28;20408;-61
2024/03/11 04:48:28;;;;;;;2.95;2.40;;;5.40;87.20;;;;;;5055662;28;20184;-60
2024/03/11 04:50:53;;;;;;;2.88;2.58;;;5.40;87.30;;;;;;5055386;28;20024;-61
2024/03/11 04:53:19;;;;;;;2.55;2.35;;;5.40;87.10;;;;;;5057300;28;20119;-60
2024/03/11 04:55:46;;;;;;;2.30;2.10;;;5.40;87.00;;;;;;5059784;28;20120;-61
2024/03/11 04:58:12;;;;;;;2.63;2.42;;;5.40;86.90;;;;;;5054898;28;20029;-58
2024/03/11 05:00:38;;;;;;;2.47;2.28;;;5.30;86.80;;;;;;5058686;28;20033;-61
2024/03/11 05:03:04;;;;;;;2.90;2.70;;;5.30;86.70;;;;;;5057930;28;20032;-60
2024/03/11 05:05:37;;;;;;;4.38;2.92;;;5.30;86.60;;;;;;5055870;28;20501;-61
2024/03/11 05:08:03;;;;;;;6.97;4.70;;;5.30;86.70;;;;;;5057789;28;20036;-61
2024/03/11 05:10:30;;;;;;;15.85;8.32;;;5.30;86.40;;;;;;5057748;28;20032;-61
2024/03/11 05:12:56;;;;;;;6.72;5.53;;;5.20;86.20;;;;;;5055068;28;20060;-61
2024/03/11 05:15:22;;;;;;;5.43;4.15;;;5.20;86.10;;;;;;5054196;28;20059;-61
2024/03/11 05:17:48;;;;;;;4.18;3.80;;;5.20;86.10;;;;;;5060301;28;20054;-61
2024/03/11 05:20:14;;;;;;;5.85;4.55;;;5.10;86.30;;;;;;5055522;28;20127;-61
2024/03/11 05:22:43;;;;;;;7.75;5.63;;;5.10;86.60;;;;;;5053405;28;20036;-61
2024/03/11 05:25:12;;;;;;;8.68;5.65;;;5.00;86.80;;;;;;5054878;28;20407;-61
2024/03/11 05:27:38;;;;;;;7.80;5.18;;;5.00;86.90;;;;;;5059720;28;20579;-61
2024/03/11 05:30:05;;;;;;;5.85;4.82;;;5.00;87.00;;;;;;5059121;28;20284;-61
2024/03/11 05:32:33;;;;;;;6.45;4.50;;;5.00;87.00;;;;;;5057977;28;20091;-61
2024/03/11 05:34:59;;;;;;;7.00;5.07;;;5.00;86.90;;;;;;5064303;28;20124;-62
2024/03/11 05:37:28;;;;;;;6.80;5.15;;;5.00;86.60;;;;;;5060514;28;20036;-61
2024/03/11 05:39:54;;;;;;;7.53;5.72;;;5.00;86.60;;;;;;5056691;28;20356;-61
2024/03/11 05:42:21;;;;;;;7.15;5.15;;;5.00;86.60;;;;;;5059261;28;20127;-61
2024/03/11 05:44:47;;;;;;;7.72;5.53;;;5.00;86.50;;;;;;5062587;28;20475;-61
2024/03/11 05:47:13;;;;;;;7.57;4.40;;;5.00;86.20;;;;;;5063202;28;20039;-61
2024/03/11 05:49:39;;;;;;;5.55;3.92;;;4.90;86.00;;;;;;5059255;28;20025;-60
2024/03/11 05:52:05;;;;;;;5.43;4.05;;;4.90;86.10;;;;;;5059216;28;20035;-61
2024/03/11 05:54:32;;;;;;;4.72;3.40;;;4.90;86.30;;;;;;5058104;28;20037;-61
2024/03/11 05:56:58;;;;;;;3.60;3.30;;;4.90;86.40;;;;;;5059321;28;20033;-61
2024/03/11 05:59:25;;;;;;;3.30;3.00;;;4.80;86.50;;;;;;5064940;28;20036;-61
2024/03/11 06:01:51;;;;;;;3.72;3.38;;;4.80;86.70;;;;;;5062254;28;20024;-61
2024/03/11 06:04:18;;;;;;;3.83;3.40;;;4.80;86.70;;;;;;5060220;28;20102;-60
2024/03/11 06:06:44;;;;;;;4.20;3.33;;;4.80;86.80;;;;;;5061467;28;20263;-61
2024/03/11 06:09:12;;;;;;;3.70;3.30;;;4.80;86.80;;;;;;5065624;28;20028;-61
2024/03/11 06:11:40;;;;;;;4.30;3.20;;;4.80;86.80;;;;;;5062589;28;20044;-61
2024/03/11 06:14:07;;;;;;;3.47;3.17;;;4.80;86.80;;;;;;5061735;28;20040;-61
2024/03/11 06:16:33;;;;;;;5.20;4.07;;;4.80;86.80;;;;;;5064331;28;20040;-60
2024/03/11 06:18:59;;;;;;;5.97;4.20;;;4.70;87.10;;;;;;5067973;28;20028;-60
2024/03/11 06:21:25;;;;;;;6.20;4.55;;;4.70;87.30;;;;;;5062558;28;20033;-61
2024/03/11 06:23:51;;;;;;;6.50;4.35;;;4.70;87.80;;;;;;5067227;28;20039;-60
2024/03/11 06:26:17;;;;;;;6.00;4.30;;;4.70;88.20;;;;;;5061866;28;20029;-61
2024/03/11 06:28:42;;;;;;;4.25;3.85;;;4.80;88.50;;;;;;5068654;28;20064;-61
2024/03/11 06:31:08;;;;;;;4.68;3.97;;;4.80;88.60;;;;;;5050573;28;20561;-61
2024/03/11 06:33:35;;;;;;;4.07;3.67;;;4.80;88.70;;;;;;5055292;28;20037;-61
2024/03/11 06:36:01;;;;;;;4.18;3.35;;;4.90;89.00;;;;;;5068422;28;20021;-60
2024/03/11 06:38:27;;;;;;;6.40;4.15;;;4.90;89.10;;;;;;5063301;28;20029;-61
2024/03/11 06:40:53;;;;;;;5.32;4.25;;;4.90;89.10;;;;;;5064043;28;20364;-61
2024/03/11 06:43:18;;;;;;;7.85;4.40;;;5.00;89.10;;;;;;5067438;28;20427;-60
2024/03/11 06:45:46;;;;;;;6.28;4.70;;;5.00;89.20;;;;;;5068670;28;20064;-61
2024/03/11 06:48:11;;;;;;;4.85;4.38;;;5.10;89.30;;;;;;5065117;28;20515;-60
2024/03/11 06:50:38;;;;;;;4.70;4.25;;;5.10;89.30;;;;;;5067484;28;20047;-61
2024/03/11 06:53:06;;;;;;;4.93;4.40;;;5.10;89.50;;;;;;5058634;28;20033;-61
2024/03/11 06:55:32;;;;;;;4.78;4.28;;;5.10;90.20;;;;;;5061407;28;20037;-60
2024/03/11 06:57:58;;;;;;;4.68;4.20;;;5.10;89.80;;;;;;5062242;28;20500;-60
2024/03/11 07:00:25;;;;;;;4.72;4.07;;;5.20;90.00;;;;;;5060086;28;20096;-61
2024/03/11 07:02:50;;;;;;;4.40;4.00;;;5.30;90.00;;;;;;5061164;28;20021;-60
2024/03/11 07:05:18;;;;;;;4.70;4.28;;;5.30;90.10;;;;;;5062112;28;20032;-60
2024/03/11 07:07:45;;;;;;;4.05;3.65;;;5.40;90.10;;;;;;5062738;28;20056;-60
2024/03/11 07:10:12;;;;;;;4.22;3.83;;;5.40;90.10;;;;;;5068176;28;20029;-60
2024/03/11 07:12:42;;;;;;;4.40;3.88;;;5.40;90.20;;;;;;5058510;28;20056;-58
2024/03/11 07:15:09;;;;;;;4.80;4.30;;;5.50;90.30;;;;;;5056252;28;20495;-60
2024/03/11 07:17:34;;;;;;;4.28;3.88;;;5.50;90.30;;;;;;5062961;28;20041;-60
2024/03/11 07:20:00;;;;;;;4.50;4.00;;;5.60;90.30;;;;;;5061824;28;20036;-60
2024/03/11 07:22:27;;;;;;;6.90;4.25;;;5.60;90.30;;;;;;5056251;28;20041;-60
2024/03/11 07:24:53;;;;;;;4.50;4.10;;;5.70;90.30;;;;;;5055789;28;20021;-60
2024/03/11 07:27:18;;;;;;;5.30;4.43;;;5.70;90.30;;;;;;5055118;28;20608;-60
2024/03/11 07:29:44;;;;;;;4.47;4.00;;;5.80;90.30;;;;;;5060240;28;20078;-60
2024/03/11 07:32:11;;;;;;;4.32;3.90;;;5.90;90.30;;;;;;5061768;28;20033;-59
2024/03/11 07:34:39;;;;;;;3.75;3.45;;;5.90;90.30;;;;;;5063819;28;20059;-59
2024/03/11 07:37:06;;;;;;;3.92;3.47;;;5.90;90.30;;;;;;5055206;28;20116;-59
2024/03/11 07:39:31;;;;;;;4.32;3.90;;;6.00;90.40;;;;;;5063689;28;20029;-58
2024/03/11 07:41:57;;;;;;;4.20;3.80;;;6.00;90.30;;;;;;5062304;28;20028;-59
2024/03/11 07:44:24;;;;;;;4.40;4.00;;;6.10;90.40;;;;;;5057690;28;20037;-58
2024/03/11 07:46:50;;;;;;;3.95;3.55;;;6.10;90.40;;;;;;5056986;28;20052;-59
2024/03/11 07:49:16;;;;;;;4.07;3.63;;;6.20;90.40;;;;;;5062006;28;20032;-58
2024/03/11 07:51:41;;;;;;;6.57;3.92;;;6.20;90.40;;;;;;5056903;28;20725;-60
2024/03/11 07:54:09;;;;;;;4.40;3.72;;;6.30;90.50;;;;;;5063664;28;20078;-59
2024/03/11 07:56:35;;;;;;;5.25;3.95;;;6.30;90.50;;;;;;5064406;28;20028;-59
2024/03/11 07:59:04;;;;;;;3.83;3.53;;;6.40;90.70;;;;;;5057756;28;20036;-60
2024/03/11 08:01:31;;;;;;;3.75;3.22;;;6.50;90.70;;;;;;5056082;28;20068;-61
2024/03/11 08:03:57;;;;;;;6.38;3.80;;;6.50;90.80;;;;;;5057922;28;20055;-59
2024/03/11 08:06:22;;;;;;;9.45;4.95;;;6.60;90.90;;;;;;5061064;28;20516;-58
2024/03/11 08:08:52;;;;;;;9.80;6.05;;;6.70;91.00;;;;;;5059380;28;20041;-57
2024/03/11 08:11:19;;;;;;;10.15;2.72;;;6.80;91.10;;;;;;5051783;28;20033;-59
2024/03/11 08:13:45;;;;;;;2.97;2.13;;;7.00;91.10;;;;;;5057609;28;20041;-59
2024/03/11 08:16:11;;;;;;;2.30;1.55;;;7.10;91.10;;;;;;5059857;28;20082;-59
2024/03/11 08:18:39;;;;;;;1.40;1.30;;;7.20;91.00;;;;;;5055593;28;20033;-60
2024/03/11 08:21:05;;;;;;;2.35;1.50;;;7.30;90.90;;;;;;5060100;28;20081;-58
2024/03/11 08:23:31;;;;;;;1.20;1.20;;;7.40;90.90;;;;;;5064701;28;20127;-59
2024/03/11 08:25:56;;;;;;;1.50;1.40;;;7.60;90.90;;;;;;5065951;28;20031;-59
2024/03/11 08:28:24;;;;;;;1.27;1.17;;;7.70;90.70;;;;;;5061233;28;20047;-60
2024/03/11 08:30:49;;;;;;;1.65;1.20;;;7.80;90.60;;;;;;5058826;28;20405;-60
2024/03/11 08:33:15;;;;;;;1.20;1.10;;;7.90;90.40;;;;;;5061320;28;20033;-59
2024/03/11 08:35:41;;;;;;;1.33;1.00;;;8.00;90.40;;;;;;5054633;28;20535;-60
2024/03/11 08:38:07;;;;;;;1.70;1.50;;;8.10;90.20;;;;;;5055070;28;20021;-60
2024/03/11 08:40:33;;;;;;;2.50;1.70;;;8.20;90.20;;;;;;5064998;28;20039;-61
2024/03/11 08:43:00;;;;;;;2.28;1.50;;;8.30;90.20;;;;;;5060375;28;21670;-59
2024/03/11 08:45:31;;;;;;;1.45;1.35;;;8.40;90.20;;;;;;5054583;28;20393;-59
2024/03/11 08:47:57;;;;;;;1.65;1.17;;;8.50;90.10;;;;;;5056809;28;20032;-59
2024/03/11 08:50:23;;;;;;;2.88;1.30;;;8.60;90.00;;;;;;5062006;28;20420;-60
2024/03/11 08:52:49;;;;;;;1.40;1.30;;;8.70;90.00;;;;;;5065416;28;20029;-58
2024/03/11 08:55:15;;;;;;;2.65;1.20;;;8.80;89.90;;;;;;5063156;28;20283;-57
2024/03/11 08:57:41;;;;;;;1.10;1.05;;;8.90;89.50;;;;;;5057602;28;20044;-59
2024/03/11 09:00:12;;;;;;;1.05;0.98;;;8.90;89.10;;;;;;5059151;28;20416;-59
2024/03/11 09:02:41;;;;;;;1.15;1.00;;;9.00;88.80;;;;;;5058977;28;20123;-58
2024/03/11 09:05:12;;;;;;;1.10;1.00;;;9.10;88.60;;;;;;5062354;28;20032;-60
2024/03/11 09:07:40;;;;;;;1.70;1.00;;;9.20;88.30;;;;;;5061106;28;20036;-59
2024/03/11 09:10:07;;;;;;;1.73;1.10;;;9.30;88.10;;;;;;5053975;28;20036;-60
2024/03/11 09:12:33;;;;;;;2.28;0.93;;;9.40;87.70;;;;;;5054671;28;20522;-60
2024/03/11 09:14:59;;;;;;;1.10;1.00;;;9.40;87.60;;;;;;5064054;28;20064;-60
2024/03/11 09:17:25;;;;;;;1.25;1.10;;;9.50;87.70;;;;;;5058758;28;20051;-59
2024/03/11 09:19:54;;;;;;;1.17;1.00;;;9.60;87.60;;;;;;5065513;28;20044;-59
2024/03/11 09:22:20;;;;;;;2.55;1.40;;;9.70;87.60;;;;;;5055941;28;20045;-59
2024/03/11 09:24:46;;;;;;;1.20;1.10;;;9.70;87.40;;;;;;5064031;28;20618;-60
2024/03/11 09:27:12;;;;;;;3.00;1.65;;;9.90;87.20;;;;;;5062100;28;20127;-61
2024/03/11 09:29:38;;;;;;;3.80;1.33;;;9.90;86.90;;;;;;5063599;28;20106;-61
2024/03/11 09:32:05;;;;;;;2.22;1.00;;;10.00;86.60;;;;;;5066136;28;20052;-55
2024/03/11 09:34:31;;;;;;;1.73;1.10;;;10.10;86.50;;;;;;5059168;28;20025;-61
2024/03/11 09:36:56;;;;;;;1.48;0.95;;;10.20;86.10;;;;;;5064866;28;20041;-59
2024/03/11 09:39:22;;;;;;;1.15;1.00;;;10.30;85.90;;;;;;5064456;28;20028;-59
2024/03/11 09:41:48;;;;;;;0.80;0.80;;;10.40;85.60;;;;;;5061206;28;20484;-60
2024/03/11 09:44:20;;;;;;;0.95;0.80;;;10.40;85.30;;;;;;5062979;28;20308;-59
2024/03/11 09:46:47;;;;;;;1.63;0.80;;;10.50;84.60;;;;;;5059265;28;20033;-61
2024/03/11 09:49:15;;;;;;;0.98;0.98;;;10.60;84.20;;;;;;5061693;28;20040;-60
2024/03/11 09:51:45;;;;;;;2.75;1.40;;;10.70;84.00;;;;;;5061840;28;20124;-61
2024/03/11 09:54:13;;;;;;;1.92;0.85;;;10.70;83.80;;;;;;5067303;28;20064;-61
2024/03/11 09:56:49;;;;;;;2.65;1.15;;;10.80;83.60;;;;;;5065968;28;20082;-60
2024/03/11 09:59:19;;;;;;;1.33;0.70;;;10.90;83.40;;;;;;5057764;28;20036;-60
2024/03/11 10:01:52;;;;;;;1.00;0.60;;;11.00;82.60;;;;;;5061521;28;20033;-59
2024/03/11 10:04:20;;;;;;;2.00;0.60;;;11.00;82.20;;;;;;5064227;28;20111;-61
2024/03/11 10:07:10;;;;;;;3.10;1.30;;;11.10;81.50;;;;;;5064149;28;20044;-61
2024/03/11 10:09:44;;;;;;;0.50;0.50;;;11.20;80.30;;;;;;5065476;28;20040;-61
2024/03/11 10:12:11;;;;;;;;;;;11.20;81.00;;;;;;5062309;28;20503;-61
2024/03/11 10:14:38;;;;;;;1.73;0.50;;;11.30;80.30;;;;;;5057177;28;19923;-59
2024/03/11 10:17:26;;;;;;;0.43;0.43;;;11.40;80.30;;;;;;5067288;28;20028;-60
2024/03/11 10:19:58;;;;;;;0.82;0.40;;;11.40;79.40;;;;;;5067942;28;20067;-59
2024/03/11 10:22:26;;;;;;;0.98;0.50;;;11.50;80.60;;;;;;5062939;28;20059;-61
2024/03/11 10:24:56;;;;;;;0.40;0.40;;;11.50;80.50;;;;;;5058246;28;20090;-59
2024/03/11 10:27:23;;;;;;;0.65;0.45;;;11.60;80.00;;;;;;5061522;28;20043;-60
2024/03/11 10:29:49;;;;;;;2.28;0.60;;;11.70;79.40;;;;;;5064171;28;20420;-61
2024/03/11 10:32:42;;;;;;;0.35;0.35;;;11.80;78.50;;;;;;5064491;28;20135;-61
2024/03/11 10:35:11;;;;;;;0.95;0.40;;;11.80;77.80;;;;;;5064923;28;20731;-59
2024/03/11 10:37:43;;;;;;;0.75;0.50;;;11.90;78.90;;;;;;5060511;28;20033;-60
2024/03/11 10:40:17;;;;;;;0.90;0.50;;;12.00;78.60;;;;;;5063652;28;20037;-59
2024/03/11 10:42:49;;;;;;;;;;;12.00;78.60;;;;;;5065527;28;20340;-59
2024/03/11 10:45:35;;;;;;;2.03;0.70;;;12.20;77.50;;;;;;5065782;28;20398;-58
2024/03/11 10:48:02;;;;;;;0.77;0.50;;;12.20;75.40;;;;;;5064219;28;20033;-59
2024/03/11 10:50:29;;;;;;;0.22;0.22;;;12.30;77.20;;;;;;5055219;28;20033;-61
2024/03/11 10:52:57;;;;;;;0.75;0.40;;;12.30;76.60;;;;;;5058273;28;20123;-61
2024/03/11 10:55:27;;;;;;;1.80;0.40;;;12.40;76.20;;;;;;5065539;28;20515;-60
2024/03/11 10:57:56;;;;;;;0.40;0.30;;;12.50;75.80;;;;;;5062367;28;20067;-61
2024/03/11 11:00:23;;;;;;;0.90;0.30;;;12.60;76.00;;;;;;5063050;28;20049;-60
2024/03/11 11:02:55;;;;;;;0.60;0.38;;;12.60;75.80;;;;;;5063216;28;20036;-61
2024/03/11 11:05:24;;;;;;;1.20;0.40;;;12.70;74.60;;;;;;5062002;28;20044;-61
2024/03/11 11:07:51;;;;;;;1.92;0.40;;;12.80;74.60;;;;;;5062065;28;20033;-60
2024/03/11 11:10:20;;;;;;;0.50;0.35;;;12.80;73.20;;;;;;5059518;28;20040;-61
2024/03/11 11:12:52;;;;;;;0.60;0.30;;;12.80;72.80;;;;;;5067770;28;20044;-56
2024/03/11 11:15:20;;;;;;;0.95;0.30;;;12.90;72.20;;;;;;5062599;28;20040;-61
2024/03/11 11:17:48;;;;;;;0.32;0.30;;;12.90;72.00;;;;;;5052685;28;20397;-59
2024/03/11 11:20:30;;;;;;;0.40;0.20;;;12.90;72.00;;;;;;5063794;28;20082;-60
2024/03/11 11:23:00;;;;;;;2.67;0.47;;;12.90;72.30;;;;;;5062013;28;20075;-61
2024/03/11 11:25:46;;;;;;;0.63;0.40;;;12.90;69.40;;;;;;5057553;28;20032;-61
2024/03/11 11:28:24;;;;;;;0.50;0.40;;;13.00;68.60;;;;;;5055896;28;20029;-61
2024/03/11 11:30:50;;;;;;;1.00;0.40;;;13.00;69.90;;;;;;5057809;28;20036;-60
2024/03/11 11:33:53;;;;;;;2.47;0.38;;;13.00;71.40;;;;;;5061742;28;20032;-60
2024/03/11 11:36:36;;;;;;;0.65;0.40;;;13.10;69.90;;;;;;5063333;28;20040;-59
2024/03/11 11:39:17;;;;;;;2.08;0.50;;;13.10;71.30;;;;;;5065153;28;20492;-59
2024/03/11 11:41:46;;;;;;;0.60;0.40;;;13.20;70.50;;;;;;5063585;28;20439;-61
2024/03/11 11:44:27;;;;;;;2.63;1.15;;;13.20;71.10;;;;;;5060064;28;20500;-60
2024/03/11 11:47:03;;;;;;;2.55;0.85;;;13.20;69.50;;;;;;5059396;28;20037;-60
2024/03/11 11:49:34;;;;;;;0.82;0.65;;;13.20;71.00;;;;;;5056128;28;20045;-59
2024/03/11 11:52:00;;;;;;;0.77;0.45;;;13.20;71.40;;;;;;5066283;28;20036;-61
2024/03/11 11:54:28;;;;;;;0.50;0.50;;;13.30;71.40;;;;;;5062324;28;20036;-61
2024/03/11 11:57:14;;;;;;;0.63;0.50;;;13.20;70.60;;;;;;5065475;28;20181;-59
2024/03/11 11:59:45;;;;;;;0.93;0.50;;;13.30;68.90;;;;;;5057181;28;20078;-61
2024/03/11 12:02:17;;;;;;;2.17;0.40;;;13.20;69.30;;;;;;5057295;28;20377;-61
2024/03/11 12:04:56;;;;;;;0.73;0.50;;;13.20;70.10;;;;;;5062751;28;20404;-61
2024/03/11 12:07:24;;;;;;;1.13;0.32;;;13.20;68.50;;;;;;5064444;28;20033;-60
2024/03/11 12:09:53;;;;;;;0.90;0.47;;;13.20;68.80;;;;;;5062110;28;20412;-61
2024/03/11 12:12:30;;;;;;;1.85;0.50;;;13.20;68.60;;;;;;5053456;28;20032;-60
2024/03/11 12:14:59;;;;;;;0.60;0.50;;;13.20;68.80;;;;;;5064078;28;20040;-62
2024/03/11 12:17:25;;;;;;;0.70;0.50;;;13.20;70.00;;;;;;5060090;28;20071;-61
2024/03/11 12:20:13;;;;;;;2.28;0.60;;;13.20;69.70;;;;;;5061299;28;20035;-59
2024/03/11 12:22:38;;;;;;;0.40;0.40;;;13.30;69.50;;;;;;5053351;28;20032;-59
2024/03/11 12:25:06;;;;;;;3.03;0.40;;;13.30;69.30;;;;;;5058449;28;20036;-60
2024/03/11 12:27:32;;;;;;;0.50;0.30;;;13.30;69.80;;;;;;5057085;28;20107;-59
2024/03/11 12:30:02;;;;;;;1.27;0.40;;;13.30;69.10;;;;;;5062037;28;20047;-59
2024/03/11 12:32:30;;;;;;;2.60;0.43;;;13.40;68.10;;;;;;5062501;28;20492;-59
2024/03/11 12:34:58;;;;;;;0.75;0.43;;;13.40;67.90;;;;;;5058584;28;20071;-60
2024/03/11 12:37:23;;;;;;;1.70;0.60;;;13.40;67.70;;;;;;5059104;28;20786;-59
2024/03/11 12:39:49;;;;;;;0.75;0.70;;;13.50;67.90;;;;;;5061314;28;20061;-60
2024/03/11 12:42:27;;;;;;;0.75;0.30;;;13.50;67.40;;;;;;5060428;28;20113;-61
2024/03/11 12:44:56;;;;;;;0.47;0.43;;;13.60;64.60;;;;;;5063355;28;20045;-62
2024/03/11 12:47:22;;;;;;;0.28;0.20;;;13.60;64.90;;;;;;5057076;28;20059;-61
2024/03/11 12:49:49;;;;;;;0.82;0.40;;;13.50;64.50;;;;;;5053289;28;20082;-60
2024/03/11 12:52:17;;;;;;;1.40;0.50;;;13.60;65.00;;;;;;5059076;28;20187;-59
2024/03/11 12:54:43;;;;;;;0.63;0.40;;;13.60;65.40;;;;;;5066000;28;20032;-61
2024/03/11 12:57:18;;;;;;;0.77;0.40;;;13.60;65.00;;;;;;5057352;28;20035;-61
2024/03/11 12:59:57;;;;;;;;;;;13.60;64.60;;;;;;5065305;28;20033;-61